Time;durP1;ratioP1;P1;durP2;ratioP2;P2;SDS_P1;SDS_P2;PMS_P1;PMS_P2;Temp;Humidity;BMP_temperature;BMP_pressure;BME280_temperature;BME280_humidity;BME280_pressure;Samples;Min_cycle;Max_cycle;Signal;HPM_P1;HPM_P2
2021/10/21 00:01:00;;;;;;;3.88;3.20;;;;;;;;;;6242846;28;20112;-84
2021/10/21 00:04:02;;;;;;;3.45;2.70;;;;;;;;;;6236045;28;20065;-83
2021/10/21 00:07:03;;;;;;;3.20;2.65;;;;;;;;;;6244298;28;20049;-83
2021/10/21 00:10:06;;;;;;;4.63;2.90;;;;;;;;;;6228609;28;20044;-82
2021/10/21 00:13:08;;;;;;;3.35;2.70;;;;;;;;;;6227650;28;20132;-82
2021/10/21 00:16:09;;;;;;;4.85;2.42;;;;;;;;;;6205072;28;20136;-84
2021/10/21 00:19:11;;;;;;;2.67;2.40;;;;;;;;;;6214781;28;20057;-83
2021/10/21 00:22:13;;;;;;;4.15;2.72;;;;;;;;;;6223903;28;20531;-84
2021/10/21 00:25:14;;;;;;;5.60;2.83;;;;;;;;;;6224429;28;20050;-83
2021/10/21 00:28:16;;;;;;;3.83;2.90;;;;;;;;;;6215453;28;20405;-84
2021/10/21 00:31:17;;;;;;;3.65;2.72;;;;;;;;;;6201179;28;20132;-82
2021/10/21 00:34:19;;;;;;;3.00;2.50;;;;;;;;;;6219942;28;20518;-81
2021/10/21 00:37:21;;;;;;;5.35;2.75;;;;;;;;;;6205811;28;20133;-80
2021/10/21 00:40:23;;;;;;;2.83;2.25;;;;;;;;;;6205673;28;20046;-83
2021/10/21 00:43:25;;;;;;;3.95;2.00;;;;;;;;;;6198391;28;20113;-83
2021/10/21 00:46:26;;;;;;;2.63;2.23;;;;;;;;;;6216535;28;20056;-82
2021/10/21 00:49:28;;;;;;;3.92;2.28;;;;;;;;;;6214226;28;20407;-83
2021/10/21 00:52:32;;;;;;;3.53;2.10;;;;;;;;;;6240274;28;20076;-81
2021/10/21 00:55:34;;;;;;;3.70;2.10;;;;;;;;;;6225202;28;20046;-81
2021/10/21 00:58:36;;;;;;;3.10;2.30;;;;;;;;;;6217020;28;20037;-83
2021/10/21 01:01:38;;;;;;;2.38;1.75;;;;;;;;;;6219644;28;21016;-84
2021/10/21 01:04:40;;;;;;;2.60;1.83;;;;;;;;;;6218740;28;20050;-82
2021/10/21 01:07:41;;;;;;;2.25;1.85;;;;;;;;;;6218353;28;20120;-82
2021/10/21 01:10:44;;;;;;;3.40;1.73;;;;;;;;;;6228154;28;20087;-84
2021/10/21 01:13:45;;;;;;;2.97;2.40;;;;;;;;;;6215757;28;20038;-82
2021/10/21 01:16:47;;;;;;;3.45;2.20;;;;;;;;;;6222384;28;20109;-83
2021/10/21 01:19:50;;;;;;;2.00;1.77;;;;;;;;;;6221517;28;20069;-83
2021/10/21 01:22:51;;;;;;;4.22;2.20;;;;;;;;;;6223095;28;20046;-82
2021/10/21 01:25:53;;;;;;;3.63;2.05;;;;;;;;;;6228461;28;20396;-83
2021/10/21 01:28:55;;;;;;;3.05;1.75;;;;;;;;;;6225624;28;20105;-82
2021/10/21 01:31:56;;;;;;;3.53;2.10;;;;;;;;;;6228918;28;20046;-81
2021/10/21 01:34:58;;;;;;;3.60;1.90;;;;;;;;;;6220389;28;20066;-81
2021/10/21 01:38:00;;;;;;;2.45;1.83;;;;;;;;;;6229077;28;20050;-82
2021/10/21 01:41:01;;;;;;;3.25;1.70;;;;;;;;;;6208628;28;20107;-81
2021/10/21 01:44:04;;;;;;;4.05;2.13;;;;;;;;;;6224638;28;20041;-83
2021/10/21 01:47:06;;;;;;;;;;;;;;;;;;6239636;28;20149;-80
2021/10/21 01:50:08;;;;;;;3.72;2.20;;;;;;;;;;6198932;28;20008;-83
2021/10/21 01:53:11;;;;;;;6.18;2.40;;;;;;;;;;6235031;28;20110;-81
2021/10/21 01:56:13;;;;;;;3.72;1.90;;;;;;;;;;6223619;28;20523;-82
2021/10/21 01:59:14;;;;;;;2.38;1.80;;;;;;;;;;6207399;28;20811;-82
2021/10/21 02:02:16;;;;;;;2.67;1.85;;;;;;;;;;6226863;28;20123;-81
2021/10/21 02:05:19;;;;;;;1.70;1.40;;;;;;;;;;6219047;28;20048;-80
2021/10/21 02:08:22;;;;;;;2.10;1.27;;;;;;;;;;6220858;28;20069;-81
2021/10/21 02:11:23;;;;;;;2.05;1.00;;;;;;;;;;6242194;28;20167;-81
2021/10/21 02:14:25;;;;;;;1.52;1.00;;;;;;;;;;6203065;28;20046;-80
2021/10/21 02:17:26;;;;;;;2.92;1.20;;;;;;;;;;6221276;28;20050;-83
2021/10/21 02:20:28;;;;;;;2.40;0.98;;;;;;;;;;6210721;28;20073;-84
2021/10/21 02:23:30;;;;;;;1.77;1.25;;;;;;;;;;6204582;28;20046;-82
2021/10/21 02:26:32;;;;;;;3.78;1.40;;;;;;;;;;6212937;28;20073;-83
2021/10/21 02:29:33;;;;;;;2.03;1.20;;;;;;;;;;6220782;28;20050;-81
2021/10/21 02:32:35;;;;;;;2.67;1.30;;;;;;;;;;6217951;28;20105;-83
2021/10/21 02:35:37;;;;;;;2.00;1.13;;;;;;;;;;6218124;28;20094;-82
2021/10/21 02:38:38;;;;;;;1.63;0.80;;;;;;;;;;6215538;28;20062;-82
2021/10/21 02:41:40;;;;;;;1.98;1.20;;;;;;;;;;6193340;28;20049;-82
2021/10/21 02:44:42;;;;;;;1.70;0.50;;;;;;;;;;6224692;28;20413;-85
2021/10/21 02:47:44;;;;;;;1.17;0.82;;;;;;;;;;6237007;28;20041;-81
2021/10/21 02:50:46;;;;;;;0.50;0.30;;;;;;;;;;6209357;28;20518;-82
2021/10/21 02:53:48;;;;;;;1.30;0.40;;;;;;;;;;6240413;28;20048;-83
2021/10/21 02:56:50;;;;;;;1.33;0.50;;;;;;;;;;6223136;28;20048;-82
2021/10/21 02:59:51;;;;;;;2.95;0.40;;;;;;;;;;6232001;28;20583;-79
2021/10/21 03:02:53;;;;;;;1.85;0.50;;;;;;;;;;6214311;28;20041;-83
2021/10/21 03:05:55;;;;;;;2.35;0.55;;;;;;;;;;6192778;28;20054;-81
2021/10/21 03:08:57;;;;;;;3.47;0.47;;;;;;;;;;6237394;28;20176;-80
2021/10/21 03:11:58;;;;;;;4.88;0.60;;;;;;;;;;6223755;28;20074;-82
2021/10/21 03:15:00;;;;;;;2.28;0.50;;;;;;;;;;6229720;28;20120;-82
2021/10/21 03:18:01;;;;;;;2.22;0.40;;;;;;;;;;6232611;28;20037;-81
2021/10/21 03:21:03;;;;;;;2.75;0.30;;;;;;;;;;6189719;28;20044;-83
2021/10/21 03:24:05;;;;;;;4.63;0.60;;;;;;;;;;6209448;28;20524;-81
2021/10/21 03:27:06;;;;;;;4.18;0.50;;;;;;;;;;6213004;28;20046;-82
2021/10/21 03:30:09;;;;;;;5.15;0.50;;;;;;;;;;6220049;28;20065;-84
2021/10/21 03:33:12;;;;;;;3.45;0.70;;;;;;;;;;6227413;28;20189;-81
2021/10/21 03:36:13;;;;;;;2.80;0.40;;;;;;;;;;6213689;28;20045;-80
2021/10/21 03:39:15;;;;;;;8.93;1.67;;;;;;;;;;6227278;28;20041;-81
2021/10/21 03:42:18;;;;;;;4.57;0.70;;;;;;;;;;6192795;28;20403;-82
2021/10/21 03:45:19;;;;;;;3.42;2.20;;;;;;;;;;6224046;28;20041;-82
2021/10/21 03:48:21;;;;;;;4.75;0.40;;;;;;;;;;6226330;28;20129;-83
2021/10/21 03:51:22;;;;;;;1.70;0.52;;;;;;;;;;6172029;28;20091;-80
2021/10/21 03:54:24;;;;;;;3.95;0.55;;;;;;;;;;6188339;28;20051;-83
2021/10/21 03:57:26;;;;;;;5.35;0.70;;;;;;;;;;6190102;28;20039;-82
2021/10/21 04:00:27;;;;;;;3.83;0.60;;;;;;;;;;6225580;28;20128;-82
2021/10/21 04:03:29;;;;;;;2.85;0.43;;;;;;;;;;6233495;28;20545;-81
2021/10/21 04:06:31;;;;;;;3.38;0.50;;;;;;;;;;6233487;28;20079;-80
2021/10/21 04:09:32;;;;;;;2.00;0.40;;;;;;;;;;6201917;28;20041;-82
2021/10/21 04:12:35;;;;;;;1.02;0.20;;;;;;;;;;6216903;28;20045;-81
2021/10/21 04:15:37;;;;;;;3.60;0.53;;;;;;;;;;6234331;28;20041;-83
2021/10/21 04:18:38;;;;;;;3.05;0.50;;;;;;;;;;6226958;28;20393;-82
2021/10/21 04:21:40;;;;;;;2.55;0.40;;;;;;;;;;6217640;28;20129;-82
2021/10/21 04:24:42;;;;;;;3.25;0.50;;;;;;;;;;6217156;28;20625;-84
2021/10/21 04:27:43;;;;;;;3.30;0.55;;;;;;;;;;6223809;28;20046;-84
2021/10/21 04:30:45;;;;;;;3.92;0.73;;;;;;;;;;6215797;28;20053;-83
2021/10/21 04:33:47;;;;;;;4.57;0.73;;;;;;;;;;6208032;28;20113;-83
2021/10/21 04:36:50;;;;;;;3.30;0.45;;;;;;;;;;6233119;28;20140;-84
2021/10/21 04:39:51;;;;;;;4.82;0.73;;;;;;;;;;6241589;28;20049;-84
2021/10/21 04:42:53;;;;;;;3.33;0.50;;;;;;;;;;6209365;28;20042;-82
2021/10/21 04:45:55;;;;;;;2.85;0.50;;;;;;;;;;6225283;28;20045;-84
2021/10/21 04:48:57;;;;;;;4.32;0.32;;;;;;;;;;6220066;28;20041;-84
2021/10/21 04:51:59;;;;;;;1.75;0.30;;;;;;;;;;6216910;28;20101;-83
2021/10/21 04:55:01;;;;;;;1.05;0.32;;;;;;;;;;6221144;28;20062;-85
2021/10/21 04:58:03;;;;;;;3.42;0.68;;;;;;;;;;6219360;28;20136;-83
2021/10/21 05:01:05;;;;;;;2.80;0.93;;;;;;;;;;6221974;28;20042;-85
2021/10/21 05:04:09;;;;;;;2.75;0.28;;;;;;;;;;6218274;28;20046;-84
2021/10/21 05:07:10;;;;;;;2.47;0.32;;;;;;;;;;6236193;28;20045;-83
2021/10/21 05:10:12;;;;;;;3.25;0.47;;;;;;;;;;6248799;28;20120;-84
2021/10/21 05:13:14;;;;;;;2.85;0.40;;;;;;;;;;6225541;28;20054;-83
2021/10/21 05:16:15;;;;;;;6.68;0.45;;;;;;;;;;6224298;28;20038;-83
2021/10/21 05:19:17;;;;;;;3.45;0.20;;;;;;;;;;6210284;28;20587;-85
2021/10/21 05:22:19;;;;;;;3.15;0.30;;;;;;;;;;6227902;28;20422;-81
2021/10/21 05:25:20;;;;;;;1.15;0.30;;;;;;;;;;6216403;28;20042;-80
2021/10/21 05:28:22;;;;;;;1.63;0.50;;;;;;;;;;6211642;28;20125;-85
2021/10/21 05:31:25;;;;;;;4.85;0.20;;;;;;;;;;6207559;28;20045;-82
2021/10/21 05:34:26;;;;;;;2.85;0.63;;;;;;;;;;6217811;28;20210;-81
2021/10/21 05:37:28;;;;;;;3.75;0.60;;;;;;;;;;6224028;28;20422;-83
2021/10/21 05:40:30;;;;;;;2.83;0.30;;;;;;;;;;6222418;28;20075;-83
2021/10/21 05:43:31;;;;;;;2.00;0.40;;;;;;;;;;6217835;28;20054;-82
2021/10/21 05:46:33;;;;;;;1.83;0.20;;;;;;;;;;6224922;28;20133;-81
2021/10/21 05:49:35;;;;;;;1.50;0.43;;;;;;;;;;6224215;28;20046;-82
2021/10/21 05:52:37;;;;;;;3.83;0.38;;;;;;;;;;6222585;28;20115;-83
2021/10/21 05:55:39;;;;;;;2.58;0.32;;;;;;;;;;6249073;28;20048;-82
2021/10/21 05:58:41;;;;;;;4.15;0.70;;;;;;;;;;6225175;28;20038;-83
2021/10/21 06:01:43;;;;;;;3.13;0.50;;;;;;;;;;6224198;28;20101;-81
2021/10/21 06:04:45;;;;;;;1.10;0.32;;;;;;;;;;6214179;28;20056;-82
2021/10/21 06:07:46;;;;;;;1.08;0.13;;;;;;;;;;6221168;28;20116;-82
2021/10/21 06:10:48;;;;;;;1.35;0.38;;;;;;;;;;6222689;28;20113;-83
2021/10/21 06:13:49;;;;;;;3.45;0.50;;;;;;;;;;6219932;28;20129;-83
2021/10/21 06:16:51;;;;;;;2.95;0.30;;;;;;;;;;6223144;28;20538;-81
2021/10/21 06:19:53;;;;;;;1.13;0.20;;;;;;;;;;6203633;28;20046;-81
2021/10/21 06:22:58;;;;;;;0.95;0.20;;;;;;;;;;6230553;28;20134;-82
2021/10/21 06:26:00;;;;;;;3.90;1.55;;;;;;;;;;6203027;28;20098;-80
2021/10/21 06:29:03;;;;;;;;;;;;;;;;;;6201372;28;20061;-82
2021/10/21 06:32:05;;;;;;;1.13;0.30;;;;;;;;;;6195952;28;19996;-81
2021/10/21 06:35:08;;;;;;;0.20;0.10;;;;;;;;;;6207070;28;20049;-83
2021/10/21 06:38:10;;;;;;;0.10;0.08;;;;;;;;;;6223014;28;20132;-81
2021/10/21 06:41:12;;;;;;;0.52;0.00;;;;;;;;;;6217227;28;20046;-81
2021/10/21 06:44:14;;;;;;;1.05;0.20;;;;;;;;;;6216861;28;20100;-84
2021/10/21 06:47:15;;;;;;;0.20;0.10;;;;;;;;;;6204307;28;20052;-81
2021/10/21 06:50:20;;;;;;;3.00;0.82;;;;;;;;;;6204444;28;20075;-84
2021/10/21 06:53:22;;;;;;;0.90;0.10;;;;;;;;;;6219449;28;20068;-83
2021/10/21 06:56:24;;;;;;;1.08;0.40;;;;;;;;;;6214339;28;20052;-79
2021/10/21 06:59:26;;;;;;;1.25;0.10;;;;;;;;;;6204954;28;20050;-82
2021/10/21 07:02:28;;;;;;;0.60;0.20;;;;;;;;;;6205756;28;20061;-79
2021/10/21 07:05:35;;;;;;;1.65;0.10;;;;;;;;;;6192303;28;20613;-82
2021/10/21 07:08:39;;;;;;;0.30;0.10;;;;;;;;;;6203098;28;20066;-79
2021/10/21 07:11:40;;;;;;;0.17;0.10;;;;;;;;;;6204217;28;20056;-80
2021/10/21 07:14:42;;;;;;;0.00;0.00;;;;;;;;;;6207251;28;20050;-81
2021/10/21 07:17:44;;;;;;;0.43;0.10;;;;;;;;;;6194928;28;20047;-82
2021/10/21 07:20:45;;;;;;;0.65;0.00;;;;;;;;;;6206579;28;20057;-82
2021/10/21 07:23:47;;;;;;;0.63;0.10;;;;;;;;;;6205600;28;20073;-80
2021/10/21 07:26:49;;;;;;;0.20;0.13;;;;;;;;;;6208331;28;20066;-83
2021/10/21 07:29:50;;;;;;;0.32;0.10;;;;;;;;;;6210162;28;20050;-80
2021/10/21 07:32:52;;;;;;;2.58;0.20;;;;;;;;;;6199657;28;20046;-79
2021/10/21 07:35:55;;;;;;;2.70;0.30;;;;;;;;;;6227264;28;20041;-80
2021/10/21 07:38:57;;;;;;;0.65;0.20;;;;;;;;;;6232136;28;20049;-80
2021/10/21 07:42:12;;;;;;;1.23;0.20;;;;;;;;;;6228192;28;20121;-78
2021/10/21 07:45:14;;;;;;;0.93;0.22;;;;;;;;;;6238816;28;20380;-82
2021/10/21 07:48:16;;;;;;;1.58;0.22;;;;;;;;;;6221733;28;20522;-82
2021/10/21 07:51:17;;;;;;;1.33;0.28;;;;;;;;;;6242925;28;20049;-80
2021/10/21 07:54:19;;;;;;;1.27;0.17;;;;;;;;;;6229117;28;20557;-81
2021/10/21 07:57:21;;;;;;;0.77;0.10;;;;;;;;;;6248063;28;20481;-83
2021/10/21 08:00:24;;;;;;;0.30;0.30;;;;;;;;;;6202886;28;20479;-81
2021/10/21 08:03:25;;;;;;;1.40;0.30;;;;;;;;;;6213218;28;20134;-82
2021/10/21 08:06:28;;;;;;;0.17;0.10;;;;;;;;;;6219715;28;20453;-80
2021/10/21 08:09:31;;;;;;;0.20;0.20;;;;;;;;;;6222143;28;20041;-82
2021/10/21 08:12:33;;;;;;;1.00;0.45;;;;;;;;;;6218018;28;20042;-81
2021/10/21 08:15:34;;;;;;;0.22;0.20;;;;;;;;;;6229743;28;20049;-82
2021/10/21 08:18:36;;;;;;;2.47;0.35;;;;;;;;;;6214530;28;20047;-79
2021/10/21 08:21:38;;;;;;;2.45;0.90;;;;;;;;;;6236629;28;20425;-83
2021/10/21 08:24:39;;;;;;;3.05;0.60;;;;;;;;;;6220453;28;20499;-79
2021/10/21 08:27:41;;;;;;;0.65;0.50;;;;;;;;;;6219642;28;20483;-80
2021/10/21 08:30:44;;;;;;;3.55;0.57;;;;;;;;;;6217454;28;20113;-81
2021/10/21 08:33:47;;;;;;;3.22;1.02;;;;;;;;;;6213053;28;20051;-81
2021/10/21 08:36:53;;;;;;;2.67;0.60;;;;;;;;;;6195656;28;20116;-80
2021/10/21 08:39:55;;;;;;;0.80;0.40;;;;;;;;;;6195724;28;20050;-82
2021/10/21 08:43:04;;;;;;;2.53;0.90;;;;;;;;;;6202197;28;20068;-83
2021/10/21 08:46:07;;;;;;;3.78;0.93;;;;;;;;;;6214121;28;20045;-80
2021/10/21 08:49:10;;;;;;;5.57;1.00;;;;;;;;;;6223923;28;20539;-81
2021/10/21 08:52:14;;;;;;;1.88;0.98;;;;;;;;;;6240866;28;20053;-82
2021/10/21 08:55:16;;;;;;;2.08;1.10;;;;;;;;;;6243046;28;20389;-82
2021/10/21 08:58:18;;;;;;;3.17;1.17;;;;;;;;;;6204651;28;20176;-81
2021/10/21 09:01:29;;;;;;;2.80;0.90;;;;;;;;;;6230239;28;20056;-83
2021/10/21 09:05:26;;;;;;;3.67;1.00;;;;;;;;;;6215435;28;20046;-83
2021/10/21 09:08:06;;;;;;;3.20;0.90;;;;;;;;;;6219989;28;20049;-83
2021/10/21 09:11:08;;;;;;;3.35;0.93;;;;;;;;;;6215008;28;20124;-83
2021/10/21 09:14:12;;;;;;;4.82;1.48;;;;;;;;;;6203391;28;20119;-82
2021/10/21 09:17:15;;;;;;;2.85;0.93;;;;;;;;;;6220536;28;20129;-82
2021/10/21 09:20:23;;;;;;;;;;;;;;;;;;6214390;28;20526;-82
2021/10/21 09:23:27;;;;;;;4.05;0.95;;;;;;;;;;6220260;28;20394;-83
2021/10/21 09:26:29;;;;;;;3.33;0.80;;;;;;;;;;6219314;28;20057;-82
2021/10/21 09:29:34;;;;;;;4.53;1.70;;;;;;;;;;6221482;28;20072;-82
2021/10/21 09:32:38;;;;;;;5.10;0.90;;;;;;;;;;6220447;28;20124;-82
2021/10/21 09:35:51;;;;;;;4.57;1.00;;;;;;;;;;6227151;28;20056;-80
2021/10/21 09:38:56;;;;;;;3.63;1.33;;;;;;;;;;6243482;28;20045;-81
2021/10/21 09:42:06;;;;;;;4.43;1.10;;;;;;;;;;6236645;28;20057;-81
2021/10/21 09:45:15;;;;;;;1.50;0.88;;;;;;;;;;6212443;28;20121;-80
2021/10/21 09:48:20;;;;;;;1.65;0.70;;;;;;;;;;6211867;28;20530;-79
2021/10/21 09:51:37;;;;;;;2.95;1.00;;;;;;;;;;6215648;28;20127;-81
2021/10/21 09:54:39;;;;;;;3.13;1.10;;;;;;;;;;6215525;28;20041;-82
2021/10/21 09:58:04;;;;;;;5.60;0.88;;;;;;;;;;6208093;28;20101;-81
2021/10/21 10:01:12;;;;;;;5.05;1.38;;;;;;;;;;6185786;28;20046;-82
2021/10/21 10:04:15;;;;;;;3.45;0.90;;;;;;;;;;6201945;28;20057;-82
2021/10/21 10:07:18;;;;;;;3.37;1.00;;;;;;;;;;6197273;28;20140;-83
2021/10/21 10:10:19;;;;;;;;;;;;;;;;;;6199602;28;20065;-83
2021/10/21 10:13:22;;;;;;;1.40;0.70;;;;;;;;;;6179745;28;19928;-81
2021/10/21 10:16:24;;;;;;;5.35;0.80;;;;;;;;;;6214296;28;20038;-80
2021/10/21 10:19:27;;;;;;;2.65;0.55;;;;;;;;;;6216353;28;20046;-82
2021/10/21 10:22:31;;;;;;;;;;;;;;;;;;6217919;28;20042;-82
2021/10/21 10:25:44;;;;;;;2.40;0.50;;;;;;;;;;6218968;28;19956;-82
2021/10/21 10:28:53;;;;;;;4.00;1.23;;;;;;;;;;6211728;28;20406;-79
2021/10/21 10:31:56;;;;;;;1.38;0.47;;;;;;;;;;6217107;28;20566;-80
2021/10/21 10:35:01;;;;;;;1.25;0.55;;;;;;;;;;6218953;28;20052;-81
2021/10/21 10:38:07;;;;;;;1.73;0.90;;;;;;;;;;6242712;28;20124;-80
2021/10/21 10:41:10;;;;;;;3.13;0.88;;;;;;;;;;6243508;28;20096;-81
2021/10/21 10:44:52;;;;;;;4.18;0.75;;;;;;;;;;6216775;28;20054;-82
2021/10/21 10:47:54;;;;;;;3.85;0.90;;;;;;;;;;6215683;28;20419;-80
2021/10/21 10:50:56;;;;;;;1.10;0.60;;;;;;;;;;6212864;28;20062;-80
2021/10/21 10:53:58;;;;;;;3.03;0.65;;;;;;;;;;6215852;28;20041;-79
2021/10/21 10:56:59;;;;;;;0.77;0.57;;;;;;;;;;6217183;28;20070;-77
2021/10/21 11:00:37;;;;;;;2.17;0.75;;;;;;;;;;6222853;28;20068;-80
2021/10/21 11:03:41;;;;;;;1.98;0.60;;;;;;;;;;6213628;28;20385;-82
2021/10/21 11:06:42;;;;;;;1.98;0.60;;;;;;;;;;6209514;28;20049;-81
2021/10/21 11:09:44;;;;;;;3.55;0.85;;;;;;;;;;6199498;28;20503;-79
2021/10/21 11:12:49;;;;;;;2.45;0.68;;;;;;;;;;6202054;28;20045;-81
2021/10/21 11:15:56;;;;;;;2.35;0.68;;;;;;;;;;6204784;28;20183;-80
2021/10/21 11:18:57;;;;;;;2.47;0.88;;;;;;;;;;6195331;28;20047;-78
2021/10/21 11:21:59;;;;;;;1.48;0.60;;;;;;;;;;6198063;28;20061;-80
2021/10/21 11:25:04;;;;;;;4.45;0.80;;;;;;;;;;6200252;28;20057;-82
2021/10/21 11:28:06;;;;;;;3.58;0.80;;;;;;;;;;6183976;28;20105;-82
2021/10/21 11:31:10;;;;;;;3.83;0.90;;;;;;;;;;6206381;28;20066;-81
2021/10/21 11:34:13;;;;;;;6.32;1.92;;;;;;;;;;6201204;28;20046;-82
2021/10/21 11:37:40;;;;;;;6.97;2.65;;;;;;;;;;6202549;28;20046;-81
2021/10/21 11:40:44;;;;;;;3.58;0.98;;;;;;;;;;6187324;28;20073;-80
2021/10/21 11:43:46;;;;;;;9.23;2.75;;;;;;;;;;6220615;28;20038;-82
2021/10/21 11:46:58;;;;;;;2.57;0.80;;;;;;;;;;6221959;28;20050;-83
2021/10/21 11:49:59;;;;;;;8.23;2.90;;;;;;;;;;6212808;28;20042;-83
2021/10/21 11:53:02;;;;;;;11.40;3.97;;;;;;;;;;6195663;28;20403;-81
2021/10/21 11:56:05;;;;;;;3.30;1.35;;;;;;;;;;6199537;28;20057;-82
2021/10/21 11:59:06;;;;;;;2.53;0.80;;;;;;;;;;6218349;28;20133;-80
2021/10/21 12:02:18;;;;;;;7.22;3.13;;;;;;;;;;6222692;28;20046;-82
2021/10/21 12:05:24;;;;;;;6.88;3.42;;;;;;;;;;6218998;28;20048;-79
2021/10/21 12:08:26;;;;;;;1.70;0.50;;;;;;;;;;6220349;28;20485;-80
2021/10/21 12:11:28;;;;;;;11.25;5.00;;;;;;;;;;6222499;28;20057;-79
2021/10/21 12:14:30;;;;;;;10.48;4.47;;;;;;;;;;6211593;28;20102;-79
2021/10/21 12:17:32;;;;;;;8.65;3.65;;;;;;;;;;6224034;28;20106;-83
2021/10/21 12:20:44;;;;;;;4.80;1.13;;;;;;;;;;6221599;28;20096;-82
2021/10/21 12:23:51;;;;;;;5.18;1.55;;;;;;;;;;6206999;28;20430;-82
2021/10/21 12:26:56;;;;;;;9.25;3.83;;;;;;;;;;6227260;28;20049;-79
2021/10/21 12:30:07;;;;;;;7.15;2.45;;;;;;;;;;6224470;28;20527;-82
2021/10/21 12:33:18;;;;;;;5.70;1.42;;;;;;;;;;6224714;28;20045;-82
2021/10/21 12:36:22;;;;;;;5.25;2.78;;;;;;;;;;6226589;28;20057;-80
2021/10/21 12:39:32;;;;;;;5.07;2.60;;;;;;;;;;6228845;28;20093;-83
2021/10/21 12:42:34;;;;;;;2.85;0.77;;;;;;;;;;6228947;28;20046;-83
2021/10/21 12:45:35;;;;;;;1.60;0.70;;;;;;;;;;6228216;28;20054;-81
2021/10/21 12:48:37;;;;;;;4.03;1.50;;;;;;;;;;6247289;28;20056;-81
2021/10/21 12:51:45;;;;;;;3.20;0.77;;;;;;;;;;6223618;28;20046;-83
2021/10/21 12:54:47;;;;;;;4.45;0.90;;;;;;;;;;6210592;28;20446;-83
2021/10/21 12:57:50;;;;;;;5.13;1.50;;;;;;;;;;6225456;28;20133;-80
2021/10/21 13:00:58;;;;;;;4.97;1.10;;;;;;;;;;6224690;28;20084;-83
2021/10/21 13:04:00;;;;;;;3.72;1.10;;;;;;;;;;6234617;28;20522;-82
2021/10/21 13:07:02;;;;;;;2.67;0.80;;;;;;;;;;6248787;28;20046;-80
2021/10/21 13:10:05;;;;;;;3.65;0.75;;;;;;;;;;6227210;28;20104;-83
2021/10/21 13:13:06;;;;;;;2.15;0.82;;;;;;;;;;6196072;28;20144;-79
2021/10/21 13:16:10;;;;;;;4.60;0.90;;;;;;;;;;6228951;28;20049;-82
2021/10/21 13:19:12;;;;;;;3.60;0.80;;;;;;;;;;6221619;28;20136;-81
2021/10/21 13:22:14;;;;;;;2.25;0.68;;;;;;;;;;6239398;28;20083;-84
2021/10/21 13:25:17;;;;;;;2.35;0.68;;;;;;;;;;6203184;28;20050;-83
2021/10/21 13:28:20;;;;;;;2.25;0.55;;;;;;;;;;6211069;28;20123;-79
2021/10/21 13:31:21;;;;;;;7.57;1.00;;;;;;;;;;6206498;28;20046;-78
2021/10/21 13:34:23;;;;;;;2.92;0.80;;;;;;;;;;6212644;28;20046;-81
2021/10/21 13:37:26;;;;;;;5.63;1.08;;;;;;;;;;6208770;28;20042;-82
2021/10/21 13:40:28;;;;;;;3.45;0.80;;;;;;;;;;6190512;28;20121;-80
2021/10/21 13:43:30;;;;;;;3.65;0.85;;;;;;;;;;6206729;28;20105;-81
2021/10/21 13:46:33;;;;;;;5.23;0.93;;;;;;;;;;6216432;28;20041;-81
2021/10/21 13:49:35;;;;;;;5.73;1.93;;;;;;;;;;6209258;28;20046;-83
2021/10/21 13:52:36;;;;;;;4.90;0.95;;;;;;;;;;6215613;28;20058;-81
2021/10/21 13:55:39;;;;;;;6.90;1.30;;;;;;;;;;6210095;28;20101;-79
2021/10/21 13:58:41;;;;;;;;;;;;;;;;;;6202794;28;20122;-80
2021/10/21 14:01:43;;;;;;;5.55;1.00;;;;;;;;;;6207071;28;19922;-80
2021/10/21 14:04:53;;;;;;;2.50;0.65;;;;;;;;;;6199519;28;20271;-80
2021/10/21 14:07:54;;;;;;;3.20;1.13;;;;;;;;;;6199365;28;20660;-80
2021/10/21 14:10:56;;;;;;;3.42;1.05;;;;;;;;;;6200865;28;20045;-81
2021/10/21 14:13:59;;;;;;;5.85;1.15;;;;;;;;;;6203403;28;20323;-82
2021/10/21 14:17:02;;;;;;;;;;;;;;;;;;6198543;28;20133;-81
2021/10/21 14:20:04;;;;;;;4.47;0.63;;;;;;;;;;6211803;28;19948;-80
2021/10/21 14:23:05;;;;;;;4.65;0.70;;;;;;;;;;6199054;28;20571;-79
2021/10/21 14:26:07;;;;;;;4.07;1.00;;;;;;;;;;6195676;28;20042;-80
2021/10/21 14:29:11;;;;;;;4.25;0.90;;;;;;;;;;6200088;28;20122;-79
2021/10/21 14:32:13;;;;;;;6.13;0.90;;;;;;;;;;6201777;28;20187;-81
2021/10/21 14:35:15;;;;;;;0.75;0.30;;;;;;;;;;6202225;28;20052;-80
2021/10/21 14:38:17;;;;;;;2.15;0.20;;;;;;;;;;6203608;28;20045;-80
2021/10/21 14:41:19;;;;;;;1.45;0.32;;;;;;;;;;6206504;28;20042;-81
2021/10/21 14:44:22;;;;;;;1.48;0.30;;;;;;;;;;6208968;28;20045;-80
2021/10/21 14:47:24;;;;;;;1.10;0.20;;;;;;;;;;6219413;28;20126;-81
2021/10/21 14:50:25;;;;;;;2.05;0.20;;;;;;;;;;6211658;28;20034;-80
2021/10/21 14:53:27;;;;;;;0.60;0.20;;;;;;;;;;6217400;28;20071;-80
2021/10/21 14:56:33;;;;;;;0.85;0.22;;;;;;;;;;6223395;28;20049;-79
2021/10/21 14:59:36;;;;;;;1.25;0.20;;;;;;;;;;6208303;28;20496;-80
2021/10/21 15:02:37;;;;;;;0.20;0.20;;;;;;;;;;6215929;28;20037;-81
2021/10/21 15:05:53;;;;;;;0.10;0.10;;;;;;;;;;6206173;28;20110;-79
2021/10/21 15:25:11;;;;;;;0.30;0.30;;;;;;;;;;6220803;28;20570;-80
2021/10/21 15:28:14;;;;;;;0.45;0.38;;;;;;;;;;6214216;28;20121;-82
2021/10/21 15:31:17;;;;;;;1.20;0.47;;;;;;;;;;6221737;28;20046;-79
2021/10/21 15:34:20;;;;;;;;;;;;;;;;;;6192844;28;20491;-81
2021/10/21 15:37:22;;;;;;;2.40;0.70;;;;;;;;;;6232211;28;19925;-82
2021/10/21 15:40:24;;;;;;;1.38;0.50;;;;;;;;;;6242227;28;20047;-82
2021/10/21 15:43:26;;;;;;;1.53;0.60;;;;;;;;;;6229343;28;20045;-81
2021/10/21 15:46:28;;;;;;;1.65;0.70;;;;;;;;;;6199757;28;20070;-81
2021/10/21 16:09:24;;;;;;;2.47;1.30;;;;;;;;;;6218580;28;20106;-82
2021/10/21 16:09:53;;;;;;;3.20;1.95;;;;;;;;;;6224186;28;20041;-80
2021/10/21 16:12:55;;;;;;;3.28;1.73;;;;;;;;;;6219356;28;20136;-80
2021/10/21 16:15:57;;;;;;;3.90;1.65;;;;;;;;;;6225134;28;20038;-80
2021/10/21 16:18:59;;;;;;;2.65;1.80;;;;;;;;;;6223104;28;20121;-82
2021/10/21 16:22:10;;;;;;;4.60;1.80;;;;;;;;;;6223713;28;20049;-80
2021/10/21 16:25:22;;;;;;;3.80;2.40;;;;;;;;;;6223565;28;20126;-81
2021/10/21 16:28:24;;;;;;;6.28;2.40;;;;;;;;;;6218255;28;20053;-81
2021/10/21 16:31:28;;;;;;;4.73;2.77;;;;;;;;;;6224007;28;20042;-80
2021/10/21 16:34:29;;;;;;;;;;;;;;;;;;6216093;28;20042;-83
2021/10/21 16:37:31;;;;;;;4.20;1.90;;;;;;;;;;6208666;28;19932;-82
2021/10/21 16:40:35;;;;;;;2.85;1.40;;;;;;;;;;6201474;28;20050;-80
2021/10/21 16:43:37;;;;;;;1.05;0.88;;;;;;;;;;6197319;28;20054;-83
2021/10/21 16:46:39;;;;;;;2.58;1.05;;;;;;;;;;6234787;28;20148;-80
2021/10/21 16:49:41;;;;;;;6.30;1.70;;;;;;;;;;6237250;28;20049;-80
2021/10/21 16:52:43;;;;;;;1.08;0.82;;;;;;;;;;6238135;28;20419;-80
2021/10/21 16:55:44;;;;;;;0.98;0.80;;;;;;;;;;6247831;28;20048;-82
2021/10/21 16:58:46;;;;;;;3.63;0.80;;;;;;;;;;6221013;28;20049;-82
2021/10/21 17:01:48;;;;;;;2.22;0.95;;;;;;;;;;6225053;28;20420;-81
2021/10/21 17:04:51;;;;;;;3.15;1.10;;;;;;;;;;6213558;28;20048;-82
2021/10/21 17:07:53;;;;;;;3.08;1.13;;;;;;;;;;6222925;28;20052;-84
2021/10/21 17:10:55;;;;;;;1.65;0.93;;;;;;;;;;6220535;28;20050;-80
2021/10/21 17:13:57;;;;;;;1.55;0.80;;;;;;;;;;6215054;28;20584;-81
2021/10/21 17:16:59;;;;;;;0.88;0.73;;;;;;;;;;6207441;28;20117;-81
2021/10/21 17:20:01;;;;;;;4.65;1.00;;;;;;;;;;6199950;28;20072;-80
2021/10/21 17:23:05;;;;;;;4.22;1.05;;;;;;;;;;6207793;28;20068;-78
2021/10/21 17:26:06;;;;;;;2.10;0.90;;;;;;;;;;6221286;28;20053;-82
2021/10/21 17:29:15;;;;;;;3.35;1.13;;;;;;;;;;6204492;28;20646;-83
2021/10/21 17:32:17;;;;;;;2.03;1.05;;;;;;;;;;6202862;28;20101;-80
2021/10/21 17:35:19;;;;;;;3.13;1.25;;;;;;;;;;6216238;28;20100;-80
2021/10/21 17:38:21;;;;;;;2.83;1.08;;;;;;;;;;6224162;28;20049;-79
2021/10/21 17:41:25;;;;;;;2.83;1.10;;;;;;;;;;6245301;28;20048;-80
2021/10/21 17:44:26;;;;;;;2.88;1.20;;;;;;;;;;6219576;28;20048;-82
2021/10/21 17:47:29;;;;;;;3.85;1.50;;;;;;;;;;6226734;28;20050;-81
2021/10/21 17:50:30;;;;;;;4.28;1.92;;;;;;;;;;6210565;28;20049;-79
2021/10/21 17:53:33;;;;;;;2.40;1.70;;;;;;;;;;6220747;28;20042;-80
2021/10/21 17:56:35;;;;;;;3.20;1.48;;;;;;;;;;6218040;28;20049;-81
2021/10/21 17:59:37;;;;;;;3.50;1.60;;;;;;;;;;6244113;28;20037;-80
2021/10/21 18:02:39;;;;;;;3.38;1.40;;;;;;;;;;6243884;28;20044;-81
2021/10/21 18:05:41;;;;;;;3.25;1.83;;;;;;;;;;6216948;28;20033;-81
2021/10/21 18:08:43;;;;;;;4.30;1.60;;;;;;;;;;6238424;28;20188;-80
2021/10/21 18:11:45;;;;;;;3.53;1.85;;;;;;;;;;6235960;28;20045;-79
2021/10/21 18:14:47;;;;;;;2.83;1.50;;;;;;;;;;6212842;28;20049;-81
2021/10/21 18:17:50;;;;;;;4.18;1.33;;;;;;;;;;6236285;28;20709;-80
2021/10/21 18:20:52;;;;;;;3.63;2.00;;;;;;;;;;6208442;28;20060;-79
2021/10/21 18:23:53;;;;;;;4.25;1.67;;;;;;;;;;6216368;28;20760;-80
2021/10/21 18:26:57;;;;;;;2.47;1.40;;;;;;;;;;6209998;28;20046;-80
2021/10/21 18:29:59;;;;;;;4.60;1.10;;;;;;;;;;6218997;28;20149;-80
2021/10/21 18:33:01;;;;;;;2.92;1.50;;;;;;;;;;6212188;28;20050;-80
2021/10/21 18:36:06;;;;;;;7.60;1.88;;;;;;;;;;6192464;28;20042;-82
2021/10/21 18:39:09;;;;;;;3.30;1.30;;;;;;;;;;6217423;28;20044;-81
2021/10/21 18:42:10;;;;;;;4.30;1.40;;;;;;;;;;6214006;28;20049;-81
2021/10/21 18:45:13;;;;;;;3.05;1.50;;;;;;;;;;6235178;28;20059;-81
2021/10/21 18:48:15;;;;;;;5.87;1.77;;;;;;;;;;6217897;28;20077;-84
2021/10/21 18:51:16;;;;;;;4.70;1.30;;;;;;;;;;6220834;28;20080;-81
2021/10/21 18:54:18;;;;;;;4.57;1.73;;;;;;;;;;6220941;28;20425;-82